Time;durP1;ratioP1;P1;durP2;ratioP2;P2;SDS_P1;SDS_P2;PMS_P1;PMS_P2;Temp;Humidity;BMP_temperature;BMP_pressure;BME280_temperature;BME280_humidity;BME280_pressure;Samples;Min_cycle;Max_cycle;Signal;HPM_P1;HPM_P2
2024/03/03 00:00:24;;;;;;;;;;;19.70;50.80;;;;;;1520285;77;1932;-72
2024/03/03 00:02:25;;;;;;;;;;;19.60;50.70;;;;;;1524861;77;1646;-73
2024/03/03 00:04:27;;;;;;;;;;;19.70;50.80;;;;;;1519193;77;601;-72
2024/03/03 00:06:29;;;;;;;;;;;19.60;50.70;;;;;;1526516;77;1294;-72
2024/03/03 00:08:31;;;;;;;;;;;19.60;50.70;;;;;;1517476;77;772;-72
2024/03/03 00:10:33;;;;;;;;;;;19.60;50.80;;;;;;1523173;77;1173;-75
2024/03/03 00:12:34;;;;;;;;;;;19.60;50.70;;;;;;1525688;77;640;-73
2024/03/03 00:14:36;;;;;;;;;;;19.60;50.60;;;;;;1523024;77;603;-72
2024/03/03 00:16:41;;;;;;;;;;;19.60;50.70;;;;;;1522234;77;713;-74
2024/03/03 00:18:43;;;;;;;;;;;19.70;50.80;;;;;;1516512;77;671;-72
2024/03/03 00:20:45;;;;;;;;;;;19.60;50.80;;;;;;1522479;77;1931;-73
2024/03/03 00:22:47;;;;;;;;;;;19.70;50.90;;;;;;1525098;77;700;-73
2024/03/03 00:24:49;;;;;;;;;;;19.60;50.70;;;;;;1526692;77;804;-73
2024/03/03 00:26:51;;;;;;;;;;;19.70;51.00;;;;;;1519069;77;770;-72
2024/03/03 00:28:53;;;;;;;;;;;19.70;51.00;;;;;;1528830;77;660;-72
2024/03/03 00:30:54;;;;;;;;;;;19.70;51.00;;;;;;1524674;77;1143;-70
2024/03/03 00:32:56;;;;;;;;;;;19.60;50.90;;;;;;1521254;77;769;-71
2024/03/03 00:34:58;;;;;;;;;;;19.70;51.00;;;;;;1516790;77;1330;-72
2024/03/03 00:37:00;;;;;;;;;;;19.60;50.90;;;;;;1519835;77;1083;-73
2024/03/03 00:39:04;;;;;;;;;;;19.60;50.80;;;;;;1518555;77;1930;-70
2024/03/03 00:41:06;;;;;;;;;;;19.60;50.90;;;;;;1508639;77;1105;-70
2024/03/03 00:43:08;;;;;;;;;;;19.60;50.90;;;;;;1526968;77;653;-70
2024/03/03 00:45:11;;;;;;;;;;;19.60;50.80;;;;;;1523264;77;674;-74
2024/03/03 00:47:13;;;;;;;;;;;19.70;51.10;;;;;;1525952;77;649;-72
2024/03/03 00:49:15;;;;;;;;;;;19.70;51.20;;;;;;1522702;77;1427;-73
2024/03/03 00:51:17;;;;;;;;;;;19.60;51.00;;;;;;1514480;76;1159;-72
2024/03/03 00:53:20;;;;;;;;;;;19.70;51.30;;;;;;1517985;77;729;-73
2024/03/03 00:55:22;;;;;;;;;;;19.70;51.20;;;;;;1517987;77;666;-68
2024/03/03 00:57:24;;;;;;;;;;;19.70;51.30;;;;;;1525792;77;651;-71
2024/03/03 00:59:26;;;;;;;;;;;19.70;51.30;;;;;;1519512;77;1918;-69
2024/03/03 01:01:28;;;;;;;;;;;19.60;51.20;;;;;;1522659;77;1130;-71
2024/03/03 01:03:31;;;;;;;;;;;19.70;51.30;;;;;;1521078;77;1365;-68
2024/03/03 01:05:33;;;;;;;;;;;19.70;51.30;;;;;;1518947;77;673;-70
2024/03/03 01:07:35;;;;;;;;;;;19.60;51.20;;;;;;1527419;77;756;-74
2024/03/03 01:09:37;;;;;;;;;;;19.70;51.30;;;;;;1515108;77;671;-70
2024/03/03 01:11:39;;;;;;;;;;;19.70;51.30;;;;;;1524730;77;1152;-70
2024/03/03 01:13:41;;;;;;;;;;;19.70;51.30;;;;;;1524767;77;830;-69
2024/03/03 01:15:43;;;;;;;;;;;19.70;51.30;;;;;;1523247;77;1563;-70
2024/03/03 01:17:45;;;;;;;;;;;19.80;51.30;;;;;;1519646;77;669;-71
2024/03/03 01:19:47;;;;;;;;;;;19.70;51.30;;;;;;1512382;77;1935;-71
2024/03/03 01:21:49;;;;;;;;;;;19.40;51.00;;;;;;1519350;77;1114;-72
2024/03/03 01:23:51;;;;;;;;;;;19.60;51.30;;;;;;1522414;77;759;-70
2024/03/03 01:25:53;;;;;;;;;;;19.60;51.50;;;;;;1518039;77;687;-69
2024/03/03 01:27:55;;;;;;;;;;;19.60;51.30;;;;;;1528142;77;659;-71
2024/03/03 01:29:56;;;;;;;;;;;19.70;51.80;;;;;;1528107;77;1359;-72
2024/03/03 01:31:58;;;;;;;;;;;19.70;51.50;;;;;;1515475;77;1090;-73
2024/03/03 01:34:00;;;;;;;;;;;19.70;51.40;;;;;;1521776;77;632;-71
2024/03/03 01:36:02;;;;;;;;;;;19.70;51.60;;;;;;1520854;77;724;-70
2024/03/03 01:38:04;;;;;;;;;;;19.70;51.60;;;;;;1521374;77;675;-70
2024/03/03 01:40:06;;;;;;;;;;;19.70;51.50;;;;;;1528252;77;1932;-69
2024/03/03 01:42:09;;;;;;;;;;;19.70;51.50;;;;;;1513391;77;1154;-71
2024/03/03 01:44:10;;;;;;;;;;;19.60;51.50;;;;;;1504277;77;1385;-71
2024/03/03 01:46:12;;;;;;;;;;;19.70;51.50;;;;;;1500138;78;807;-70
2024/03/03 01:48:14;;;;;;;;;;;19.70;51.60;;;;;;1505903;77;700;-68
2024/03/03 01:50:16;;;;;;;;;;;19.70;51.60;;;;;;1494412;78;1195;-68
2024/03/03 01:52:18;;;;;;;;;;;19.70;51.50;;;;;;1506453;78;700;-71
2024/03/03 01:54:20;;;;;;;;;;;19.70;51.50;;;;;;1517576;76;676;-71
2024/03/03 01:56:22;;;;;;;;;;;19.70;51.60;;;;;;1502399;78;693;-74
2024/03/03 01:58:24;;;;;;;;;;;19.70;51.60;;;;;;1498640;78;1542;-70
2024/03/03 02:00:26;;;;;;;;;;;19.70;51.50;;;;;;1503261;78;1934;-69
2024/03/03 02:02:28;;;;;;;;;;;19.60;51.50;;;;;;1508354;78;634;-68
2024/03/03 02:04:30;;;;;;;;;;;19.60;51.50;;;;;;1504566;77;795;-71
2024/03/03 02:06:33;;;;;;;;;;;19.70;51.70;;;;;;1503639;77;638;-69
2024/03/03 02:08:35;;;;;;;;;;;19.70;51.70;;;;;;1503710;78;676;-71
2024/03/03 02:10:37;;;;;;;;;;;19.60;51.70;;;;;;1504083;77;1133;-71
2024/03/03 02:12:40;;;;;;;;;;;19.70;51.80;;;;;;1508135;78;1588;-71
2024/03/03 02:14:42;;;;;;;;;;;19.60;51.80;;;;;;1504577;78;710;-68
2024/03/03 02:16:44;;;;;;;;;;;19.60;51.80;;;;;;1501452;78;795;-68
2024/03/03 02:18:46;;;;;;;;;;;19.60;51.80;;;;;;1503351;78;749;-70
2024/03/03 02:20:48;;;;;;;;;;;19.70;52.10;;;;;;1500812;78;1950;-71
2024/03/03 02:22:50;;;;;;;;;;;19.70;52.30;;;;;;1503707;78;665;-70
2024/03/03 02:24:51;;;;;;;;;;;19.60;52.10;;;;;;1497017;78;713;-69
2024/03/03 02:26:53;;;;;;;;;;;19.70;52.20;;;;;;1501314;78;1408;-70
2024/03/03 02:28:55;;;;;;;;;;;19.70;52.20;;;;;;1502596;77;748;-71
2024/03/03 02:30:57;;;;;;;;;;;19.60;52.10;;;;;;1508139;77;1109;-71
2024/03/03 02:32:59;;;;;;;;;;;19.70;52.30;;;;;;1505264;77;735;-71
2024/03/03 02:35:01;;;;;;;;;;;19.60;52.10;;;;;;1504669;78;771;-71
2024/03/03 02:37:03;;;;;;;;;;;19.60;52.20;;;;;;1505435;77;641;-70
2024/03/03 02:39:04;;;;;;;;;;;19.70;52.30;;;;;;1502928;77;691;-69
2024/03/03 02:41:06;;;;;;;;;;;19.60;52.40;;;;;;1502647;77;1933;-71
2024/03/03 02:43:09;;;;;;;;;;;19.60;52.40;;;;;;1510831;77;1121;-71
2024/03/03 02:45:11;;;;;;;;;;;19.70;52.60;;;;;;1498136;78;661;-70
2024/03/03 02:47:12;;;;;;;;;;;19.60;52.40;;;;;;1493889;78;677;-70
2024/03/03 02:49:14;;;;;;;;;;;19.70;52.60;;;;;;1502745;78;722;-71
2024/03/03 02:51:16;;;;;;;;;;;19.70;52.60;;;;;;1505432;78;1165;-71
2024/03/03 02:53:18;;;;;;;;;;;19.70;52.70;;;;;;1505159;78;666;-69
2024/03/03 02:55:20;;;;;;;;;;;19.60;52.70;;;;;;1507246;78;1569;-73
2024/03/03 02:57:22;;;;;;;;;;;19.60;52.60;;;;;;1506255;78;683;-69
2024/03/03 02:59:24;;;;;;;;;;;19.60;52.80;;;;;;1505233;78;730;-71
2024/03/03 03:01:26;;;;;;;;;;;19.70;52.80;;;;;;1498302;78;1950;-68
2024/03/03 03:03:28;;;;;;;;;;;19.60;52.80;;;;;;1507866;78;720;-67
2024/03/03 03:05:30;;;;;;;;;;;19.70;53.30;;;;;;1505530;78;560;-68
2024/03/03 03:07:32;;;;;;;;;;;19.70;53.40;;;;;;1499444;78;638;-69
2024/03/03 03:09:34;;;;;;;;;;;19.70;53.60;;;;;;1496911;78;1626;-71
2024/03/03 03:11:37;;;;;;;;;;;19.60;53.20;;;;;;1505611;78;1194;-67
2024/03/03 03:13:39;;;;;;;;;;;19.70;53.40;;;;;;1503058;78;736;-73
2024/03/03 03:15:41;;;;;;;;;;;19.70;53.30;;;;;;1504249;78;695;-73
2024/03/03 03:17:43;;;;;;;;;;;19.70;53.40;;;;;;1506567;78;757;-73
2024/03/03 03:19:45;;;;;;;;;;;19.70;53.50;;;;;;1508190;78;693;-72
2024/03/03 03:21:47;;;;;;;;;;;19.70;53.60;;;;;;1494796;78;1938;-70
2024/03/03 03:23:49;;;;;;;;;;;19.60;53.40;;;;;;1505520;78;1559;-70
2024/03/03 03:25:51;;;;;;;;;;;19.70;53.60;;;;;;1500218;78;645;-68
2024/03/03 03:27:53;;;;;;;;;;;19.70;53.60;;;;;;1508107;78;718;-71
2024/03/03 03:29:55;;;;;;;;;;;19.70;53.50;;;;;;1502597;78;649;-71
2024/03/03 03:31:57;;;;;;;;;;;19.60;53.20;;;;;;1503230;78;1130;-72
2024/03/03 03:33:59;;;;;;;;;;;19.60;53.30;;;;;;1506704;78;696;-69
2024/03/03 03:36:01;;;;;;;;;;;19.60;53.30;;;;;;1502055;78;683;-71
2024/03/03 03:38:03;;;;;;;;;;;19.70;53.40;;;;;;1507329;78;1295;-69
2024/03/03 03:40:09;;;;;;;;;;;19.70;53.40;;;;;;1505161;78;1915;-72
2024/03/03 03:42:09;;;;;;;;;;;19.70;53.40;;;;;;1504165;78;1142;-71
2024/03/03 03:44:11;;;;;;;;;;;19.70;53.50;;;;;;1519912;77;945;-72
2024/03/03 03:46:13;;;;;;;;;;;19.70;53.50;;;;;;1518641;77;767;-72
2024/03/03 03:48:15;;;;;;;;;;;19.70;53.60;;;;;;1521752;77;687;-71
2024/03/03 03:50:17;;;;;;;;;;;19.70;53.40;;;;;;1522834;77;1198;-70
2024/03/03 03:52:18;;;;;;;;;;;19.60;53.30;;;;;;1520940;77;1466;-70
2024/03/03 03:54:21;;;;;;;;;;;19.70;53.40;;;;;;1518671;77;668;-72
2024/03/03 03:56:23;;;;;;;;;;;19.70;53.30;;;;;;1517788;77;722;-73
2024/03/03 03:58:25;;;;;;;;;;;19.70;53.20;;;;;;1524081;77;718;-71
2024/03/03 04:00:27;;;;;;;;;;;19.70;53.30;;;;;;1515600;77;1939;-68
2024/03/03 04:02:29;;;;;;;;;;;19.70;53.40;;;;;;1521438;77;670;-69
2024/03/03 04:04:32;;;;;;;;;;;19.70;53.40;;;;;;1521924;77;1282;-73
2024/03/03 04:06:34;;;;;;;;;;;19.70;53.30;;;;;;1520511;77;1033;-70
2024/03/03 04:08:36;;;;;;;;;;;19.70;53.40;;;;;;1523223;77;665;-70
2024/03/03 04:10:38;;;;;;;;;;;19.70;53.40;;;;;;1518306;77;1235;-70
2024/03/03 04:12:40;;;;;;;;;;;19.70;53.30;;;;;;1524203;77;705;-72
2024/03/03 04:14:42;;;;;;;;;;;19.70;53.30;;;;;;1526459;77;685;-72
2024/03/03 04:16:44;;;;;;;;;;;19.60;53.30;;;;;;1523731;77;786;-70
2024/03/03 04:18:46;;;;;;;;;;;19.70;53.60;;;;;;1525999;77;1594;-68
2024/03/03 04:20:47;;;;;;;;;;;19.70;53.30;;;;;;1521200;77;1961;-69
2024/03/03 04:22:49;;;;;;;;;;;19.60;53.10;;;;;;1520956;77;788;-69
2024/03/03 04:24:51;;;;;;;;;;;19.70;53.20;;;;;;1521921;77;653;-68
2024/03/03 04:26:53;;;;;;;;;;;19.60;53.10;;;;;;1523064;77;710;-71
2024/03/03 04:28:55;;;;;;;;;;;19.70;53.30;;;;;;1523089;77;606;-71
2024/03/03 04:30:57;;;;;;;;;;;19.70;53.20;;;;;;1518176;77;1082;-71
2024/03/03 04:32:59;;;;;;;;;;;19.60;53.10;;;;;;1522577;77;1338;-69
2024/03/03 04:35:01;;;;;;;;;;;19.70;53.30;;;;;;1524655;77;676;-72
2024/03/03 04:37:03;;;;;;;;;;;19.60;53.10;;;;;;1526359;77;701;-70
2024/03/03 04:39:07;;;;;;;;;;;19.70;53.30;;;;;;1524578;77;789;-72
2024/03/03 04:41:19;;;;;;;;;;;19.70;53.40;;;;;;1522957;77;1932;-70
2024/03/03 04:43:18;;;;;;;;;;;19.60;53.20;;;;;;1520217;77;1379;-68
2024/03/03 04:45:21;;;;;;;;;;;19.70;53.50;;;;;;1500366;78;627;-69
2024/03/03 04:47:23;;;;;;;;;;;19.70;53.60;;;;;;1499060;78;1489;-68
2024/03/03 04:49:24;;;;;;;;;;;19.70;53.80;;;;;;1505452;78;612;-70
2024/03/03 04:51:26;;;;;;;;;;;19.70;53.70;;;;;;1504216;78;1197;-69
2024/03/03 04:53:28;;;;;;;;;;;19.70;53.90;;;;;;1500134;78;605;-71
2024/03/03 04:55:30;;;;;;;;;;;19.60;53.90;;;;;;1507244;78;665;-68
2024/03/03 04:57:32;;;;;;;;;;;19.70;53.70;;;;;;1503835;78;688;-73
2024/03/03 04:59:34;;;;;;;;;;;19.70;54.20;;;;;;1506633;78;723;-70
2024/03/03 05:01:37;;;;;;;;;;;19.80;54.20;;;;;;1502275;78;1949;-70
2024/03/03 05:03:39;;;;;;;;;;;19.70;54.10;;;;;;1503400;78;1461;-69
2024/03/03 05:05:41;;;;;;;;;;;19.70;54.10;;;;;;1507146;78;640;-70
2024/03/03 05:07:43;;;;;;;;;;;19.70;53.90;;;;;;1508017;78;677;-70
2024/03/03 05:09:45;;;;;;;;;;;19.70;54.10;;;;;;1504476;78;719;-71
2024/03/03 05:11:47;;;;;;;;;;;19.70;54.30;;;;;;1506123;78;1199;-69
2024/03/03 05:13:49;;;;;;;;;;;19.70;54.20;;;;;;1505849;78;688;-70
2024/03/03 05:15:51;;;;;;;;;;;19.70;54.40;;;;;;1505858;78;1578;-72
2024/03/03 05:17:53;;;;;;;;;;;19.70;54.20;;;;;;1497082;78;673;-68
2024/03/03 05:19:55;;;;;;;;;;;19.80;54.20;;;;;;1508589;78;699;-70
2024/03/03 05:21:57;;;;;;;;;;;19.70;54.20;;;;;;1505480;78;1946;-69
2024/03/03 05:23:59;;;;;;;;;;;19.70;54.20;;;;;;1508414;78;764;-71
2024/03/03 05:26:01;;;;;;;;;;;19.70;54.20;;;;;;1506355;78;741;-70
2024/03/03 05:28:03;;;;;;;;;;;19.70;54.40;;;;;;1503790;78;666;-70
2024/03/03 05:30:05;;;;;;;;;;;19.70;54.20;;;;;;1505261;78;1541;-72
2024/03/03 05:32:07;;;;;;;;;;;19.70;54.10;;;;;;1493764;78;1164;-70
2024/03/03 05:34:13;;;;;;;;;;;19.70;54.30;;;;;;1506648;78;627;-68
2024/03/03 05:36:15;;;;;;;;;;;19.70;54.10;;;;;;1504599;78;917;-72
2024/03/03 05:38:17;;;;;;;;;;;19.70;54.20;;;;;;1495864;78;583;-68
2024/03/03 05:40:20;;;;;;;;;;;19.70;54.20;;;;;;1498433;78;1153;-71
2024/03/03 05:42:22;;;;;;;;;;;19.70;54.10;;;;;;1500550;78;1912;-70
2024/03/03 05:44:23;;;;;;;;;;;19.80;54.00;;;;;;1489687;78;1577;-71
2024/03/03 05:46:25;;;;;;;;;;;19.70;54.10;;;;;;1476137;79;750;-66
2024/03/03 05:48:28;;;;;;;;;;;19.70;54.20;;;;;;1479191;79;677;-67
2024/03/03 05:50:30;;;;;;;;;;;19.70;53.80;;;;;;1477517;80;1173;-72
2024/03/03 05:52:32;;;;;;;;;;;19.70;53.90;;;;;;1473658;79;615;-71
2024/03/03 05:54:34;;;;;;;;;;;19.70;54.10;;;;;;1476548;79;788;-68
2024/03/03 05:56:36;;;;;;;;;;;19.70;54.00;;;;;;1479614;79;677;-69
2024/03/03 05:58:37;;;;;;;;;;;19.70;53.80;;;;;;1478440;78;1364;-67
2024/03/03 06:00:39;;;;;;;;;;;19.70;53.90;;;;;;1480586;79;1376;-69
2024/03/03 06:02:41;;;;;;;;;;;19.70;53.90;;;;;;1480145;79;1931;-70
2024/03/03 06:04:43;;;;;;;;;;;19.70;53.70;;;;;;1478966;78;714;-73
2024/03/03 06:06:45;;;;;;;;;;;19.70;53.90;;;;;;1477681;79;704;-72
2024/03/03 06:08:50;;;;;;;;;;;19.70;53.90;;;;;;1478785;78;746;-73
2024/03/03 06:10:51;;;;;;;;;;;19.70;53.80;;;;;;1481671;78;1613;-67
2024/03/03 06:12:53;;;;;;;;;;;19.70;53.80;;;;;;1480003;79;1330;-70
2024/03/03 06:14:54;;;;;;;;;;;19.70;53.90;;;;;;1477496;78;777;-68
2024/03/03 06:16:56;;;;;;;;;;;19.70;53.70;;;;;;1471180;79;774;-71
2024/03/03 06:18:58;;;;;;;;;;;19.70;53.70;;;;;;1477391;80;799;-68
2024/03/03 06:21:00;;;;;;;;;;;19.70;54.00;;;;;;1477991;79;1931;-69
2024/03/03 06:23:02;;;;;;;;;;;19.70;53.90;;;;;;1483351;78;639;-69
2024/03/03 06:25:04;;;;;;;;;;;19.70;53.70;;;;;;1472496;79;1571;-69
2024/03/03 06:27:06;;;;;;;;;;;19.70;53.80;;;;;;1481080;79;738;-69
2024/03/03 06:29:08;;;;;;;;;;;19.80;54.00;;;;;;1481782;79;768;-69
2024/03/03 06:31:10;;;;;;;;;;;19.70;53.90;;;;;;1476140;79;1144;-71
2024/03/03 06:33:12;;;;;;;;;;;19.70;53.70;;;;;;1482143;79;648;-70
2024/03/03 06:35:13;;;;;;;;;;;19.80;53.60;;;;;;1477216;78;1019;-72
2024/03/03 06:37:17;;;;;;;;;;;19.70;53.60;;;;;;1476513;78;654;-72
2024/03/03 06:39:19;;;;;;;;;;;19.70;53.60;;;;;;1476570;78;1748;-72
2024/03/03 06:41:21;;;;;;;;;;;19.70;53.50;;;;;;1478882;80;1944;-70
2024/03/03 06:43:23;;;;;;;;;;;19.80;53.60;;;;;;1478634;79;705;-72
2024/03/03 06:45:25;;;;;;;;;;;20.00;53.60;;;;;;1499829;77;1090;-70
2024/03/03 06:47:32;;;;;;;;;;;19.70;53.50;;;;;;1509058;78;796;-70
2024/03/03 06:49:33;;;;;;;;;;;19.70;53.60;;;;;;1508661;78;1889;-67
2024/03/03 06:51:35;;;;;;;;;;;19.70;53.60;;;;;;1500196;78;1177;-71
2024/03/03 06:53:38;;;;;;;;;;;19.70;53.60;;;;;;1508220;78;1585;-69
2024/03/03 06:55:40;;;;;;;;;;;19.70;53.60;;;;;;1500432;77;766;-71
2024/03/03 06:57:42;;;;;;;;;;;19.70;53.60;;;;;;1503578;78;764;-71
2024/03/03 06:59:44;;;;;;;;;;;19.70;53.60;;;;;;1498597;78;684;-68
2024/03/03 07:01:45;;;;;;;;;;;19.70;53.80;;;;;;1504232;77;1938;-68
2024/03/03 07:06:07;;;;;;;;;;;19.70;54.10;;;;;;1503735;78;1642;-71
2024/03/03 07:08:09;;;;;;;;;;;19.70;54.20;;;;;;1504332;78;1613;-70
2024/03/03 07:10:11;;;;;;;;;;;19.70;54.10;;;;;;1506868;78;704;-72
2024/03/03 07:12:13;;;;;;;;;;;19.70;54.20;;;;;;1507340;78;1094;-70
2024/03/03 07:14:15;;;;;;;;;;;19.70;54.20;;;;;;1505451;78;693;-71
2024/03/03 07:16:17;;;;;;;;;;;19.70;54.20;;;;;;1502024;78;758;-68
2024/03/03 07:18:18;;;;;;;;;;;19.70;54.00;;;;;;1502565;78;703;-70
2024/03/03 07:20:20;;;;;;;;;;;19.70;54.00;;;;;;1500298;78;1185;-70
2024/03/03 07:22:22;;;;;;;;;;;19.70;53.90;;;;;;1504995;78;1930;-71
2024/03/03 07:24:24;;;;;;;;;;;19.70;54.00;;;;;;1502726;78;647;-68
2024/03/03 07:26:26;;;;;;;;;;;19.70;54.00;;;;;;1503316;78;614;-71
2024/03/03 07:28:28;;;;;;;;;;;19.70;54.00;;;;;;1504347;78;753;-70
2024/03/03 07:30:30;;;;;;;;;;;19.70;54.00;;;;;;1507628;78;1204;-68
2024/03/03 07:32:32;;;;;;;;;;;19.70;54.00;;;;;;1507102;78;674;-70
2024/03/03 07:34:34;;;;;;;;;;;19.70;54.10;;;;;;1506725;78;659;-70
2024/03/03 07:36:36;;;;;;;;;;;19.70;54.20;;;;;;1504497;78;1558;-70
2024/03/03 07:38:38;;;;;;;;;;;19.70;54.20;;;;;;1508248;78;878;-69
2024/03/03 07:40:40;;;;;;;;;;;19.70;54.20;;;;;;1511653;78;1121;-69
2024/03/03 07:42:41;;;;;;;;;;;19.70;54.20;;;;;;1506435;78;1962;-69
2024/03/03 07:44:43;;;;;;;;;;;19.70;54.30;;;;;;1506271;77;1006;-70
2024/03/03 07:46:45;;;;;;;;;;;19.70;54.20;;;;;;1540588;77;690;-70
2024/03/03 07:48:47;;;;;;;;;;;19.70;54.30;;;;;;1540959;77;686;-71
2024/03/03 07:50:49;;;;;;;;;;;19.70;54.30;;;;;;1538707;77;1368;-69
2024/03/03 07:52:51;;;;;;;;;;;19.70;54.30;;;;;;1536549;77;619;-71
2024/03/03 07:54:53;;;;;;;;;;;19.70;54.30;;;;;;1535301;77;542;-71
2024/03/03 07:56:55;;;;;;;;;;;19.70;54.50;;;;;;1533845;77;708;-71
2024/03/03 07:59:02;;;;;;;;;;;19.70;55.10;;;;;;1538626;77;686;-71
2024/03/03 08:01:03;;;;;;;;;;;19.70;54.80;;;;;;1539349;77;1744;-67
2024/03/03 08:03:10;;;;;;;;;;;19.70;54.60;;;;;;1538593;77;1932;-68
2024/03/03 08:05:12;;;;;;;;;;;19.70;54.30;;;;;;1538873;77;1567;-68
2024/03/03 08:07:14;;;;;;;;;;;19.70;54.20;;;;;;1538459;77;732;-67
2024/03/03 08:09:16;;;;;;;;;;;19.70;54.10;;;;;;1537810;77;746;-69
2024/03/03 08:11:18;;;;;;;;;;;19.70;54.10;;;;;;1534889;77;1113;-72
2024/03/03 08:13:19;;;;;;;;;;;19.80;54.20;;;;;;1534219;77;600;-67
2024/03/03 08:15:21;;;;;;;;;;;19.80;54.00;;;;;;1537792;77;814;-67
2024/03/03 08:17:24;;;;;;;;;;;19.80;53.90;;;;;;1533281;77;739;-66
2024/03/03 08:19:27;;;;;;;;;;;19.80;53.80;;;;;;1534847;77;1535;-67
2024/03/03 08:21:31;;;;;;;;;;;19.80;53.60;;;;;;1535964;75;1166;-71
2024/03/03 08:23:33;;;;;;;;;;;19.80;52.30;;;;;;1535818;75;1921;-70
2024/03/03 08:25:35;;;;;;;;;;;19.80;51.40;;;;;;1539520;76;926;-68
2024/03/03 08:27:36;;;;;;;;;;;19.70;52.00;;;;;;1539088;77;681;-71
2024/03/03 08:29:38;;;;;;;;;;;19.70;52.80;;;;;;1538114;77;799;-68
2024/03/03 08:31:42;;;;;;;;;;;19.70;52.10;;;;;;1535677;77;1584;-68
2024/03/03 08:33:43;;;;;;;;;;;19.70;51.40;;;;;;1531374;77;659;-70
2024/03/03 08:35:45;;;;;;;;;;;19.70;49.80;;;;;;1531666;77;772;-71
2024/03/03 08:37:47;;;;;;;;;;;19.60;49.10;;;;;;1538413;77;760;-72
2024/03/03 08:39:49;;;;;;;;;;;19.70;49.20;;;;;;1535967;77;736;-70
2024/03/03 08:41:51;;;;;;;;;;;19.70;49.20;;;;;;1530230;77;1959;-69
2024/03/03 08:43:53;;;;;;;;;;;19.70;49.60;;;;;;1531135;77;677;-70
2024/03/03 08:45:55;;;;;;;;;;;19.60;50.60;;;;;;1526262;77;1571;-70
2024/03/03 08:47:56;;;;;;;;;;;19.60;51.30;;;;;;1502384;78;960;-71
2024/03/03 08:49:58;;;;;;;;;;;19.70;51.80;;;;;;1505883;78;690;-70
2024/03/03 08:52:02;;;;;;;;;;;19.60;50.60;;;;;;1508861;78;1198;-71
2024/03/03 08:54:04;;;;;;;;;;;19.60;50.30;;;;;;1510217;78;624;-70
2024/03/03 08:56:06;;;;;;;;;;;19.60;51.00;;;;;;1497466;78;749;-72
2024/03/03 08:58:08;;;;;;;;;;;19.60;49.10;;;;;;1503132;78;694;-70
2024/03/03 09:00:12;;;;;;;;;;;19.60;47.60;;;;;;1506990;78;1547;-70
2024/03/03 09:02:14;;;;;;;;;;;19.60;47.20;;;;;;1505934;78;1938;-68
2024/03/03 09:04:16;;;;;;;;;;;19.50;48.80;;;;;;1495986;78;777;-69
2024/03/03 09:06:18;;;;;;;;;;;19.50;48.60;;;;;;1502308;78;716;-69
2024/03/03 09:08:20;;;;;;;;;;;19.60;49.30;;;;;;1496491;78;718;-70
2024/03/03 09:10:22;;;;;;;;;;;19.60;50.20;;;;;;1503486;78;1146;-70
2024/03/03 09:12:24;;;;;;;;;;;19.60;50.60;;;;;;1504072;78;689;-68
2024/03/03 09:14:26;;;;;;;;;;;19.60;50.70;;;;;;1505750;78;1194;-70
2024/03/03 09:16:28;;;;;;;;;;;19.60;50.70;;;;;;1504156;78;672;-71
2024/03/03 09:18:30;;;;;;;;;;;19.60;50.80;;;;;;1505225;78;1026;-68
2024/03/03 09:20:32;;;;;;;;;;;19.60;50.80;;;;;;1503709;78;1112;-68
2024/03/03 09:22:34;;;;;;;;;;;19.60;50.80;;;;;;1502760;78;1937;-70
2024/03/03 09:24:36;;;;;;;;;;;19.60;50.80;;;;;;1502654;78;759;-69
2024/03/03 09:26:39;;;;;;;;;;;19.60;50.80;;;;;;1494229;78;779;-68
2024/03/03 09:28:41;;;;;;;;;;;19.60;50.80;;;;;;1507128;78;1243;-66
2024/03/03 09:30:43;;;;;;;;;;;19.60;50.80;;;;;;1506546;78;1136;-70
2024/03/03 09:32:51;;;;;;;;;;;19.60;50.80;;;;;;1504363;78;696;-71
2024/03/03 09:34:50;;;;;;;;;;;19.60;50.80;;;;;;1502797;78;1621;-68
2024/03/03 09:36:52;;;;;;;;;;;19.60;50.90;;;;;;1501365;78;726;-67
2024/03/03 09:38:53;;;;;;;;;;;19.60;50.90;;;;;;1504047;78;812;-69
2024/03/03 09:40:56;;;;;;;;;;;19.60;50.70;;;;;;1498244;77;1148;-71
2024/03/03 09:42:58;;;;;;;;;;;19.60;50.70;;;;;;1503488;78;1925;-69
2024/03/03 09:45:00;;;;;;;;;;;19.70;50.80;;;;;;1504413;78;606;-73
2024/03/03 09:47:02;;;;;;;;;;;19.60;50.70;;;;;;1512296;77;1091;-70
2024/03/03 09:49:06;;;;;;;;;;;20.00;50.90;;;;;;1521131;77;747;-70
2024/03/03 09:51:09;;;;;;;;;;;19.60;50.60;;;;;;1526547;77;1178;-70
2024/03/03 09:53:10;;;;;;;;;;;19.70;50.70;;;;;;1526789;77;801;-70
2024/03/03 09:55:12;;;;;;;;;;;19.70;50.70;;;;;;1524239;77;802;-70
2024/03/03 09:57:14;;;;;;;;;;;19.60;50.70;;;;;;1522265;77;1293;-71
2024/03/03 09:59:16;;;;;;;;;;;19.60;50.60;;;;;;1523839;77;676;-71
2024/03/03 10:01:20;;;;;;;;;;;19.60;50.60;;;;;;1524334;77;1163;-71
2024/03/03 10:03:22;;;;;;;;;;;19.60;50.60;;;;;;1519447;77;1913;-71
2024/03/03 10:05:24;;;;;;;;;;;19.60;50.60;;;;;;1527477;77;701;-71
2024/03/03 10:07:28;;;;;;;;;;;19.60;50.50;;;;;;1517983;77;706;-69
2024/03/03 10:09:30;;;;;;;;;;;19.50;48.90;;;;;;1525407;77;682;-68
2024/03/03 10:11:33;;;;;;;;;;;19.60;49.30;;;;;;1512681;77;1494;-66
2024/03/03 10:13:35;;;;;;;;;;;19.60;50.00;;;;;;1514074;77;692;-68
2024/03/03 10:15:36;;;;;;;;;;;19.60;50.30;;;;;;1525753;77;638;-68
2024/03/03 10:17:39;;;;;;;;;;;19.60;50.50;;;;;;1521909;77;646;-67
2024/03/03 10:19:41;;;;;;;;;;;19.60;50.50;;;;;;1523468;77;957;-69
2024/03/03 10:21:43;;;;;;;;;;;19.60;50.50;;;;;;1519278;77;1120;-70
2024/03/03 10:23:44;;;;;;;;;;;19.60;50.60;;;;;;1525666;77;1916;-71
2024/03/03 10:25:54;;;;;;;;;;;19.60;50.60;;;;;;1513917;77;1307;-69
2024/03/03 10:27:58;;;;;;;;;;;19.70;50.80;;;;;;1517543;77;1760;-66
2024/03/03 10:30:04;;;;;;;;;;;19.60;50.60;;;;;;1485247;77;817;-69
2024/03/03 10:32:08;;;;;;;;;;;19.60;50.60;;;;;;1522637;77;1115;-70
2024/03/03 10:34:11;;;;;;;;;;;19.70;50.70;;;;;;1523464;77;619;-69
2024/03/03 10:36:13;;;;;;;;;;;19.60;50.60;;;;;;1521198;77;649;-68
2024/03/03 10:38:15;;;;;;;;;;;19.50;50.60;;;;;;1523605;77;1438;-69
2024/03/03 10:40:17;;;;;;;;;;;19.70;50.70;;;;;;1516199;77;744;-70
2024/03/03 10:42:19;;;;;;;;;;;19.60;50.60;;;;;;1525594;77;672;-70
2024/03/03 10:44:21;;;;;;;;;;;19.60;50.60;;;;;;1518611;77;1972;-68
2024/03/03 10:46:23;;;;;;;;;;;19.60;50.50;;;;;;1514117;77;1129;-69
2024/03/03 10:48:25;;;;;;;;;;;19.60;50.50;;;;;;1527543;77;692;-69
2024/03/03 10:50:27;;;;;;;;;;;19.70;50.60;;;;;;1534324;77;1193;-68
2024/03/03 10:52:30;;;;;;;;;;;19.70;50.70;;;;;;1529193;77;1356;-70
2024/03/03 10:54:31;;;;;;;;;;;19.60;50.50;;;;;;1540438;77;753;-69
2024/03/03 10:56:33;;;;;;;;;;;19.70;50.70;;;;;;1535685;77;688;-67
2024/03/03 10:58:35;;;;;;;;;;;19.60;50.60;;;;;;1532249;77;642;-69
2024/03/03 11:00:37;;;;;;;;;;;19.70;50.70;;;;;;1535375;77;1135;-72
2024/03/03 11:02:39;;;;;;;;;;;20.10;51.10;;;;;;1539340;77;893;-70
2024/03/03 11:04:41;;;;;;;;;;;19.70;49.00;;;;;;1536087;77;680;-68
2024/03/03 11:06:43;;;;;;;;;;;19.60;49.20;;;;;;1537863;77;1310;-70
2024/03/03 11:08:49;;;;;;;;;;;19.60;49.50;;;;;;1537225;77;717;-68
2024/03/03 11:10:50;;;;;;;;;;;19.60;49.80;;;;;;1533786;77;1699;-70
2024/03/03 11:12:53;;;;;;;;;;;19.60;49.80;;;;;;1537650;77;660;-71
2024/03/03 11:14:57;;;;;;;;;;;19.70;50.00;;;;;;1534937;77;745;-71
2024/03/03 11:16:59;;;;;;;;;;;19.70;50.20;;;;;;1536122;77;681;-73
2024/03/03 11:19:04;;;;;;;;;;;19.70;50.10;;;;;;1538735;76;810;-69
2024/03/03 11:21:09;;;;;;;;;;;19.70;50.20;;;;;;1534861;77;1618;-68
2024/03/03 11:23:20;;;;;;;;;;;19.70;50.20;;;;;;1538466;77;1932;-69
2024/03/03 11:25:22;;;;;;;;;;;19.70;50.20;;;;;;1536243;77;649;-71
2024/03/03 11:27:26;;;;;;;;;;;19.70;50.20;;;;;;1536066;77;686;-67
2024/03/03 11:29:28;;;;;;;;;;;19.70;48.80;;;;;;1538110;76;767;-67
2024/03/03 11:31:30;;;;;;;;;;;19.70;48.80;;;;;;1534022;77;1095;-70
2024/03/03 11:33:32;;;;;;;;;;;19.60;49.00;;;;;;1525345;77;777;-69
2024/03/03 11:35:34;;;;;;;;;;;19.60;49.40;;;;;;1531756;77;1555;-70
2024/03/03 11:37:35;;;;;;;;;;;19.70;49.60;;;;;;1539804;77;707;-71
2024/03/03 11:39:38;;;;;;;;;;;19.70;49.70;;;;;;1531182;77;888;-69
2024/03/03 11:41:41;;;;;;;;;;;19.70;49.70;;;;;;1505393;78;1178;-70
2024/03/03 11:43:43;;;;;;;;;;;19.70;49.90;;;;;;1526567;77;1927;-70
2024/03/03 11:45:47;;;;;;;;;;;19.70;49.90;;;;;;1526463;77;735;-70
2024/03/03 11:47:49;;;;;;;;;;;19.70;49.90;;;;;;1527457;77;1127;-70
2024/03/03 11:49:52;;;;;;;;;;;19.70;49.90;;;;;;1523917;77;1599;-69
2024/03/03 11:51:54;;;;;;;;;;;19.70;49.90;;;;;;1522244;77;1191;-70
2024/03/03 11:53:59;;;;;;;;;;;19.70;49.90;;;;;;1530455;77;631;-66
2024/03/03 11:56:01;;;;;;;;;;;19.70;48.70;;;;;;1529632;77;758;-71
2024/03/03 11:58:03;;;;;;;;;;;19.70;48.40;;;;;;1531848;77;751;-70
2024/03/03 12:00:16;;;;;;;;;;;19.70;48.70;;;;;;1536539;77;700;-70
2024/03/03 12:02:10;;;;;;;;;;;19.60;49.00;;;;;;1526092;77;1438;-71
2024/03/03 12:04:12;;;;;;;;;;;19.70;49.30;;;;;;1525483;77;1944;-70
2024/03/03 12:06:14;;;;;;;;;;;19.70;49.40;;;;;;1539407;77;790;-70
2024/03/03 12:08:19;;;;;;;;;;;19.70;49.30;;;;;;1527486;77;774;-70
2024/03/03 12:10:23;;;;;;;;;;;19.70;49.40;;;;;;1519383;77;1681;-69